createdAt,value
2017-01-17T00:00:45.779Z,0
2017-01-17T00:01:56.128Z,0
2017-01-17T00:03:06.469Z,0
2017-01-17T00:04:17.211Z,0
2017-01-17T00:05:27.953Z,0
2017-01-17T00:06:38.700Z,0
2017-01-17T00:07:48.647Z,0
2017-01-17T00:08:58.984Z,0
2017-01-17T00:10:08.921Z,0
2017-01-17T00:11:19.271Z,0
2017-01-17T00:12:30.005Z,0
2017-01-17T00:13:39.955Z,0
2017-01-17T00:14:50.702Z,0
2017-01-17T00:16:01.096Z,0
2017-01-17T00:17:11.439Z,0
2017-01-17T00:18:21.408Z,0
2017-01-17T00:19:31.759Z,0
2017-01-17T00:20:42.486Z,0
2017-01-17T00:21:53.241Z,0
2017-01-17T00:23:03.983Z,0
2017-01-17T00:24:14.319Z,0
2017-01-17T00:25:24.268Z,0
2017-01-17T00:26:35.037Z,0
2017-01-17T00:27:45.780Z,0
2017-01-17T00:28:55.725Z,0
2017-01-17T00:30:06.499Z,0
2017-01-17T00:31:16.838Z,0
2017-01-17T00:32:27.182Z,0
2017-01-17T00:33:37.532Z,0
2017-01-17T00:34:47.889Z,0
2017-01-17T00:35:57.837Z,0
2017-01-17T00:37:08.187Z,0
2017-01-17T00:38:18.941Z,0
2017-01-17T00:39:29.283Z,0
2017-01-17T00:40:39.637Z,0
2017-01-17T00:41:50.379Z,0
2017-01-17T00:42:59.940Z,0
2017-01-17T00:44:10.697Z,0
2017-01-17T00:45:21.038Z,0
2017-01-17T00:46:31.001Z,0
2017-01-17T00:47:41.358Z,0
2017-01-17T00:48:52.087Z,0
2017-01-17T00:50:02.456Z,0
2017-01-17T00:51:12.812Z,0
2017-01-17T00:52:23.149Z,0
2017-01-17T00:53:33.502Z,0
2017-01-17T00:54:44.272Z,0
2017-01-17T00:55:54.635Z,0
2017-01-17T00:57:04.986Z,0
2017-01-17T00:58:15.721Z,0
2017-01-17T00:59:26.478Z,0
2017-01-17T01:00:36.817Z,0
2017-01-17T01:01:47.553Z,0
2017-01-17T01:02:58.292Z,0
2017-01-17T01:04:09.025Z,0
2017-01-17T01:05:19.373Z,0
2017-01-17T01:06:30.104Z,0
2017-01-17T01:07:40.442Z,0
2017-01-17T01:08:50.816Z,0
2017-01-17T01:10:01.154Z,0
2017-01-17T01:11:11.501Z,0
2017-01-17T01:12:21.857Z,0
2017-01-17T01:13:32.224Z,0
2017-01-17T01:14:42.960Z,0
2017-01-17T01:15:52.916Z,0
2017-01-17T01:17:03.653Z,0
2017-01-17T01:18:14.399Z,0
2017-01-17T01:19:24.781Z,0
2017-01-17T01:20:35.517Z,0
2017-01-17T01:21:45.874Z,0
2017-01-17T01:22:56.612Z,0
2017-01-17T01:24:07.357Z,0
2017-01-17T01:25:17.709Z,0
2017-01-17T01:26:28.449Z,0
2017-01-17T01:27:39.207Z,0
2017-01-17T01:28:49.949Z,0
2017-01-17T01:30:00.310Z,0
2017-01-17T01:31:10.657Z,0
2017-01-17T01:32:21.389Z,0
2017-01-17T01:33:32.135Z,0
2017-01-17T01:34:42.882Z,0
2017-01-17T01:35:53.620Z,0
2017-01-17T01:37:03.951Z,0
2017-01-17T01:38:14.294Z,0
2017-01-17T01:39:25.071Z,0
2017-01-17T01:40:35.814Z,0
2017-01-17T01:41:46.549Z,0
2017-01-17T01:42:57.136Z,0
2017-01-17T01:44:07.891Z,0
2017-01-17T01:45:17.844Z,0
2017-01-17T01:46:28.559Z,0
2017-01-17T01:47:39.321Z,0
2017-01-17T01:48:50.063Z,0
2017-01-17T01:50:00.804Z,0
2017-01-17T01:51:11.546Z,0
2017-01-17T01:52:22.284Z,0
2017-01-17T01:53:33.029Z,0
2017-01-17T01:54:43.391Z,0
2017-01-17T01:55:54.167Z,0
2017-01-17T01:57:04.503Z,0
2017-01-17T01:58:14.842Z,0
2017-01-17T01:59:25.613Z,0
2017-01-17T02:00:36.021Z,0
2017-01-17T02:01:46.029Z,0
2017-01-17T02:02:56.041Z,0
2017-01-17T02:04:06.449Z,0
2017-01-17T02:05:17.256Z,0
2017-01-17T02:06:28.059Z,0
2017-01-17T02:07:38.428Z,0
2017-01-17T02:08:49.191Z,0
2017-01-17T02:09:59.973Z,0
2017-01-17T02:11:10.748Z,0
2017-01-17T02:12:21.492Z,0
2017-01-17T02:13:32.237Z,0
2017-01-17T02:14:42.979Z,0
2017-01-17T02:15:53.316Z,0
2017-01-17T02:17:03.658Z,0
2017-01-17T02:18:13.230Z,0
2017-01-17T02:19:23.577Z,0
2017-01-17T02:20:34.315Z,0
2017-01-17T02:21:45.054Z,0
2017-01-17T02:22:55.394Z,0
2017-01-17T02:24:06.141Z,0
2017-01-17T02:25:16.876Z,0
2017-01-17T02:26:27.647Z,0
2017-01-17T02:27:37.998Z,0
2017-01-17T02:28:47.954Z,0
2017-01-17T02:29:57.111Z,0
2017-01-17T02:31:07.447Z,0
2017-01-17T02:32:17.785Z,0
2017-01-17T02:33:28.142Z,0
2017-01-17T02:34:38.122Z,0
2017-01-17T02:35:48.482Z,0
2017-01-17T02:36:59.222Z,0
2017-01-17T02:38:09.948Z,0
2017-01-17T02:39:20.301Z,0
2017-01-17T02:40:31.032Z,0
2017-01-17T02:41:40.595Z,0
2017-01-17T02:42:51.400Z,0
2017-01-17T02:44:02.262Z,0
2017-01-17T02:45:13.073Z,0
2017-01-17T02:46:23.110Z,0
2017-01-17T02:47:33.926Z,0
2017-01-17T02:48:44.285Z,0
2017-01-17T02:49:55.024Z,0
2017-01-17T02:51:05.387Z,0
2017-01-17T02:52:16.164Z,0
2017-01-17T02:53:26.504Z,0
2017-01-17T02:54:37.246Z,0
2017-01-17T02:55:47.985Z,0
2017-01-17T02:56:58.718Z,0
2017-01-17T02:58:08.269Z,0
2017-01-17T02:59:19.009Z,0
2017-01-17T03:00:29.802Z,0
2017-01-17T03:01:40.537Z,0
2017-01-17T03:33:32.780Z,0
2017-01-17T03:34:43.143Z,0
2017-01-17T03:35:53.889Z,0
2017-01-17T03:37:04.237Z,0
2017-01-17T03:38:14.961Z,0
2017-01-17T03:39:25.305Z,0
2017-01-17T03:40:36.085Z,0
2017-01-17T03:41:46.441Z,0
2017-01-17T03:42:57.173Z,0
2017-01-17T03:44:07.931Z,0
2017-01-17T03:45:18.317Z,0
2017-01-17T03:46:29.084Z,0
2017-01-17T03:47:39.824Z,0
2017-01-17T03:48:50.603Z,0
2017-01-17T03:50:01.355Z,0
2017-01-17T03:51:11.691Z,0
2017-01-17T03:52:21.662Z,0
2017-01-17T03:53:32.009Z,0
2017-01-17T03:54:42.386Z,0
2017-01-17T03:55:53.125Z,0
2017-01-17T03:57:03.089Z,0
2017-01-17T03:58:13.428Z,0
2017-01-17T03:59:24.160Z,0
2017-01-17T04:00:34.541Z,0
2017-01-17T04:01:45.506Z,0
2017-01-17T04:02:55.858Z,0
2017-01-17T04:04:06.600Z,0
2017-01-17T04:05:16.952Z,0
2017-01-17T04:06:27.703Z,0
2017-01-17T04:07:38.051Z,0
2017-01-17T04:08:48.401Z,0
2017-01-17T04:09:59.131Z,0
2017-01-17T04:11:09.871Z,0
2017-01-17T04:12:20.215Z,0
2017-01-17T04:13:30.972Z,0
2017-01-17T04:14:41.336Z,0
2017-01-17T04:15:52.085Z,0
2017-01-17T04:17:02.849Z,0
2017-01-17T04:18:13.206Z,0
2017-01-17T04:19:23.152Z,0
2017-01-17T04:20:33.121Z,0
2017-01-17T04:21:43.851Z,0
2017-01-17T04:22:53.804Z,0
2017-01-17T04:24:04.541Z,0
2017-01-17T04:25:15.300Z,0
2017-01-17T04:26:26.108Z,0
2017-01-17T04:27:36.870Z,0
2017-01-17T04:28:47.614Z,0
2017-01-17T04:29:58.353Z,0
2017-01-17T04:31:08.727Z,0
2017-01-17T04:32:19.068Z,0
2017-01-17T04:33:29.413Z,0
2017-01-17T04:34:39.763Z,0
2017-01-17T04:35:50.504Z,0
2017-01-17T04:37:00.887Z,0
2017-01-17T04:38:11.232Z,0
2017-01-17T04:39:21.987Z,0
2017-01-17T04:40:32.327Z,0
2017-01-17T04:41:43.066Z,0
2017-01-17T04:42:53.828Z,0
2017-01-17T04:44:04.175Z,0
2017-01-17T04:45:14.966Z,0
2017-01-17T04:46:25.716Z,0
2017-01-17T04:47:36.069Z,0
2017-01-17T04:48:46.816Z,0
2017-01-17T04:49:57.219Z,0
2017-01-17T04:51:07.955Z,0
2017-01-17T04:52:18.303Z,0
2017-01-17T04:53:28.658Z,0
2017-01-17T04:54:39.385Z,0
2017-01-17T04:55:50.133Z,0
2017-01-17T04:57:00.471Z,0
2017-01-17T04:58:10.825Z,0
2017-01-17T04:59:21.165Z,0
2017-01-17T05:00:31.905Z,0
2017-01-17T05:01:42.253Z,0
2017-01-17T05:02:52.597Z,0
2017-01-17T05:04:02.944Z,0
2017-01-17T05:05:12.882Z,0
2017-01-17T05:06:23.638Z,0
2017-01-17T05:07:34.379Z,0
2017-01-17T05:08:44.716Z,0
2017-01-17T05:09:54.672Z,0
2017-01-17T05:11:05.006Z,0
2017-01-17T05:12:15.357Z,0
2017-01-17T05:13:26.094Z,0
2017-01-17T05:14:36.433Z,0
2017-01-17T05:15:46.779Z,0
2017-01-17T05:16:57.509Z,0
2017-01-17T05:18:07.454Z,0
2017-01-17T05:19:17.788Z,0
2017-01-17T05:20:27.723Z,0
2017-01-17T05:21:38.074Z,0
2017-01-17T05:22:48.427Z,0
2017-01-17T05:23:58.764Z,0
2017-01-17T05:25:09.501Z,0
2017-01-17T05:26:20.233Z,0
2017-01-17T05:27:30.605Z,0
2017-01-17T05:28:40.960Z,0
2017-01-17T05:29:51.712Z,0
2017-01-17T05:31:01.694Z,0
2017-01-17T05:32:12.422Z,0
2017-01-17T05:33:23.168Z,0
2017-01-17T05:34:33.512Z,0
2017-01-17T05:35:44.253Z,0
2017-01-17T05:36:54.203Z,0
2017-01-17T05:38:04.944Z,0
2017-01-17T05:39:15.286Z,0
2017-01-17T05:40:26.049Z,0
2017-01-17T05:41:36.010Z,0
2017-01-17T05:42:45.993Z,0
2017-01-17T05:43:56.738Z,0
2017-01-17T05:45:07.494Z,0
2017-01-17T05:46:18.260Z,0
2017-01-17T05:47:28.192Z,0
2017-01-17T05:48:37.775Z,0
2017-01-17T05:49:48.131Z,0
2017-01-17T05:50:58.460Z,0
2017-01-17T05:52:08.424Z,0
2017-01-17T05:53:18.797Z,0
2017-01-17T05:54:29.555Z,0
2017-01-17T05:55:40.306Z,0
2017-01-17T05:56:50.652Z,0
2017-01-17T05:58:01.003Z,0
2017-01-17T05:59:11.740Z,0
2017-01-17T06:00:22.068Z,0
2017-01-17T06:01:32.843Z,0
2017-01-17T06:02:42.792Z,0
2017-01-17T06:03:53.143Z,4
2017-01-17T06:05:03.886Z,4
2017-01-17T06:06:13.844Z,4
2017-01-17T06:07:24.611Z,4
2017-01-17T06:08:34.592Z,0
2017-01-17T06:09:44.935Z,0
2017-01-17T06:10:55.698Z,4
2017-01-17T06:12:06.419Z,4
2017-01-17T06:13:16.366Z,4
2017-01-17T06:14:26.726Z,4
2017-01-17T06:15:37.060Z,4
2017-01-17T06:16:47.815Z,8
2017-01-17T06:17:58.563Z,8
2017-01-17T06:19:09.308Z,8
2017-01-17T06:20:20.047Z,12
2017-01-17T06:21:30.389Z,12
2017-01-17T06:22:40.731Z,16
2017-01-17T06:23:51.512Z,20
2017-01-17T06:25:01.853Z,20
2017-01-17T06:26:11.791Z,20
2017-01-17T06:27:22.136Z,24
2017-01-17T06:28:32.084Z,28
2017-01-17T06:29:42.419Z,28
2017-01-17T06:30:52.431Z,36
2017-01-17T06:32:02.769Z,40
2017-01-17T06:33:13.492Z,40
2017-01-17T06:34:23.441Z,44
2017-01-17T06:35:34.209Z,48
2017-01-17T06:36:44.559Z,52
2017-01-17T06:37:54.507Z,56
2017-01-17T06:39:04.460Z,60
2017-01-17T06:40:14.821Z,60
2017-01-17T06:41:25.572Z,68
2017-01-17T06:42:36.324Z,76
2017-01-17T06:43:46.685Z,84
2017-01-17T06:44:57.047Z,92
2017-01-17T06:46:07.803Z,96
2017-01-17T06:47:18.160Z,100
2017-01-17T06:48:28.143Z,104
2017-01-17T06:49:38.869Z,112
2017-01-17T06:50:49.617Z,116
2017-01-17T06:51:59.974Z,132
2017-01-17T06:53:10.319Z,144
2017-01-17T06:54:21.063Z,160
2017-01-17T06:55:31.842Z,172
2017-01-17T06:56:42.188Z,172
2017-01-17T06:57:52.546Z,172
2017-01-17T06:59:03.289Z,188
2017-01-17T07:00:13.349Z,196
2017-01-17T07:01:24.081Z,196
2017-01-17T07:02:34.029Z,192
2017-01-17T07:03:43.994Z,188
2017-01-17T07:04:54.342Z,192
2017-01-17T07:06:05.097Z,196
2017-01-17T07:07:15.845Z,200
2017-01-17T07:08:26.582Z,212
2017-01-17T07:09:37.338Z,220
2017-01-17T07:10:47.680Z,224
2017-01-17T07:11:58.034Z,232
2017-01-17T07:13:07.188Z,240
2017-01-17T07:14:17.940Z,248
2017-01-17T07:15:28.712Z,240
2017-01-17T07:16:39.448Z,248
2017-01-17T07:17:50.194Z,268
2017-01-17T07:19:00.952Z,268
2017-01-17T07:20:10.930Z,264
2017-01-17T07:21:20.888Z,268
2017-01-17T07:22:31.237Z,288
2017-01-17T07:23:41.977Z,304
2017-01-17T07:24:52.722Z,300
2017-01-17T07:26:02.674Z,348
2017-01-17T07:27:13.017Z,392
2017-01-17T07:28:23.761Z,440
2017-01-17T07:29:33.717Z,432
2017-01-17T07:30:44.064Z,456
2017-01-17T07:31:54.420Z,516
2017-01-17T07:33:05.174Z,520
2017-01-17T07:34:15.523Z,532
2017-01-17T07:35:25.886Z,560
2017-01-17T07:36:36.233Z,584
2017-01-17T07:37:46.579Z,624
2017-01-17T07:38:56.946Z,620
2017-01-17T07:40:07.703Z,664
2017-01-17T07:41:18.077Z,732
2017-01-17T07:42:28.075Z,760
2017-01-17T07:43:38.827Z,784
2017-01-17T07:44:49.573Z,780
2017-01-17T07:46:00.304Z,804
2017-01-17T07:47:10.273Z,836
2017-01-17T07:48:21.004Z,912
2017-01-17T07:49:31.347Z,960
2017-01-17T07:50:41.295Z,1052
2017-01-17T07:51:52.039Z,1208
2017-01-17T07:53:02.771Z,1336
2017-01-17T07:54:12.742Z,1416
2017-01-17T07:55:23.089Z,1424
2017-01-17T07:56:33.437Z,1400
2017-01-17T07:57:44.183Z,1276
2017-01-17T07:58:54.520Z,1280
2017-01-17T08:00:04.877Z,1248
2017-01-17T08:01:15.614Z,1256
2017-01-17T08:02:26.360Z,1280
2017-01-17T08:03:37.093Z,1356
2017-01-17T08:04:47.837Z,1488
2017-01-17T08:05:58.590Z,1480
2017-01-17T08:07:09.351Z,1500
2017-01-17T08:08:19.689Z,1464
2017-01-17T08:09:30.034Z,1492
2017-01-17T08:10:39.601Z,1560
2017-01-17T08:11:49.562Z,1536
2017-01-17T08:13:00.275Z,1424
2017-01-17T08:14:11.381Z,1408
2017-01-17T08:15:22.872Z,1428
2017-01-17T08:16:34.325Z,1484
2017-01-17T08:17:45.327Z,1500
2017-01-17T08:18:56.951Z,1440
2017-01-17T08:20:08.135Z,1396
2017-01-17T08:21:18.867Z,1364
2017-01-17T08:22:29.633Z,1368
2017-01-17T08:23:40.372Z,1348
2017-01-17T08:24:50.723Z,1368
2017-01-17T08:26:01.111Z,1416
2017-01-17T08:27:11.869Z,1464
2017-01-17T08:28:22.636Z,1508
2017-01-17T08:29:32.993Z,1552
2017-01-17T08:30:42.952Z,1492
2017-01-17T08:31:53.696Z,1492
2017-01-17T08:33:04.504Z,1600
2017-01-17T08:34:14.485Z,1752
2017-01-17T08:35:24.433Z,1764
2017-01-17T08:36:34.786Z,1688
2017-01-17T08:37:45.135Z,1748
2017-01-17T08:38:55.089Z,1868
2017-01-17T08:40:05.434Z,1856
2017-01-17T08:41:16.184Z,1836
2017-01-17T08:42:26.937Z,1904
2017-01-17T08:43:37.663Z,2024
2017-01-17T08:44:47.221Z,2036
2017-01-17T08:45:57.971Z,2036
2017-01-17T08:47:08.327Z,2000
2017-01-17T08:48:18.280Z,1900
2017-01-17T08:49:29.023Z,1884
2017-01-17T08:50:39.761Z,1924
2017-01-17T08:51:50.134Z,1988
2017-01-17T08:53:00.097Z,2140
2017-01-17T08:54:10.438Z,2328
2017-01-17T08:55:21.170Z,2388
2017-01-17T08:56:31.528Z,2420
2017-01-17T08:57:41.083Z,2312
2017-01-17T08:58:51.834Z,2364
2017-01-17T09:00:01.432Z,2368
2017-01-17T09:01:11.759Z,2456
2017-01-17T09:02:22.490Z,2524
2017-01-17T09:03:32.856Z,2544
2017-01-17T09:04:43.610Z,2528
2017-01-17T09:05:53.966Z,2504
2017-01-17T09:07:04.312Z,2588
2017-01-17T09:08:15.053Z,2604
2017-01-17T09:09:25.409Z,2676
2017-01-17T09:10:35.372Z,2748
2017-01-17T09:11:45.356Z,2696
2017-01-17T09:12:55.719Z,2748
2017-01-17T09:14:06.503Z,2860
2017-01-17T09:15:16.883Z,2968
2017-01-17T09:16:27.625Z,3172
2017-01-17T09:17:37.996Z,3236
2017-01-17T09:18:48.735Z,3436
2017-01-17T09:19:59.071Z,3212
2017-01-17T09:21:09.817Z,3396
2017-01-17T09:22:20.218Z,3688
2017-01-17T09:23:30.612Z,4280
2017-01-17T09:24:40.568Z,3916
2017-01-17T09:25:51.329Z,4068
2017-01-17T09:27:02.116Z,5124
2017-01-17T09:28:12.862Z,4436
2017-01-17T09:29:23.209Z,6168
2017-01-17T09:30:32.790Z,5804
2017-01-17T09:31:43.781Z,5176
2017-01-17T09:32:53.385Z,6056
2017-01-17T09:34:03.815Z,6204
2017-01-17T09:35:14.148Z,4072
2017-01-17T09:36:24.509Z,5772
2017-01-17T09:37:34.452Z,4008
2017-01-17T09:38:45.208Z,4280
2017-01-17T09:39:55.956Z,5996
2017-01-17T09:41:06.711Z,4572
2017-01-17T09:42:17.067Z,4368
2017-01-17T09:43:27.796Z,4664
2017-01-17T09:44:38.146Z,3964
2017-01-17T09:45:48.504Z,3900
2017-01-17T09:46:59.248Z,4244
2017-01-17T09:48:09.231Z,5200
2017-01-17T09:49:19.203Z,5352
2017-01-17T09:50:29.559Z,6048
2017-01-17T09:51:39.906Z,5856
2017-01-17T09:52:50.662Z,5796
2017-01-17T09:54:00.997Z,5000
2017-01-17T09:55:11.751Z,4904
2017-01-17T09:56:22.501Z,4652
2017-01-17T09:57:32.885Z,5032
2017-01-17T09:58:43.656Z,4680
2017-01-17T09:59:54.423Z,4584
2017-01-17T10:01:05.202Z,5896
2017-01-17T10:02:15.952Z,4452
2017-01-17T10:03:26.707Z,4540
2017-01-17T10:04:36.304Z,4700
2017-01-17T10:05:47.067Z,4316
2017-01-17T10:06:57.420Z,4404
2017-01-17T10:08:08.176Z,4468
2017-01-17T10:09:18.968Z,4624
2017-01-17T10:10:29.324Z,4608
2017-01-17T10:11:39.680Z,4268
2017-01-17T10:12:50.423Z,4828
2017-01-17T10:14:01.199Z,5160
2017-01-17T10:15:11.568Z,4656
2017-01-17T10:16:22.328Z,6144
2017-01-17T10:17:32.665Z,4424
2017-01-17T10:18:43.401Z,4548
2017-01-17T10:19:53.753Z,4464
2017-01-17T10:21:04.109Z,5400
2017-01-17T10:22:14.471Z,4496
2017-01-17T10:23:25.237Z,5592
2017-01-17T10:24:35.985Z,4808
2017-01-17T10:25:46.763Z,5652
2017-01-17T10:26:56.714Z,5956
2017-01-17T10:28:07.079Z,5596
2017-01-17T10:29:17.435Z,4868
2017-01-17T10:30:28.189Z,5180
2017-01-17T10:31:38.573Z,6736
2017-01-17T10:32:48.942Z,5964
2017-01-17T10:33:59.292Z,6876
2017-01-17T10:35:09.641Z,6232
2017-01-17T10:36:20.009Z,4528
2017-01-17T10:37:30.367Z,4308
2017-01-17T10:38:40.751Z,4516
2017-01-17T10:39:51.097Z,4832
2017-01-17T10:41:01.446Z,4816
2017-01-17T10:42:12.244Z,4448
2017-01-17T10:43:22.666Z,4268
2017-01-17T10:44:33.013Z,4016
2017-01-17T10:45:43.376Z,4004
2017-01-17T10:46:54.113Z,3848
2017-01-17T10:48:04.464Z,3932
2017-01-17T10:49:14.835Z,3928
2017-01-17T10:50:25.598Z,3964
2017-01-17T10:51:35.928Z,3988
2017-01-17T10:52:46.281Z,3880
2017-01-17T10:53:57.026Z,3604
2017-01-17T10:55:07.428Z,3380
2017-01-17T10:56:17.793Z,3356
2017-01-17T10:57:27.743Z,3340
2017-01-17T10:58:37.300Z,3064
2017-01-17T10:59:47.257Z,2972
2017-01-17T11:00:57.617Z,3024
2017-01-17T11:02:08.375Z,3068
2017-01-17T11:03:19.146Z,3164
2017-01-17T11:04:29.921Z,3132
2017-01-17T11:05:40.679Z,2976
2017-01-17T11:06:50.637Z,3108
2017-01-17T11:08:00.625Z,3180
2017-01-17T11:09:11.449Z,3096
2017-01-17T11:10:21.397Z,3008
2017-01-17T11:11:32.155Z,2856
2017-01-17T11:12:42.918Z,2712
2017-01-17T11:13:53.293Z,2684
2017-01-17T11:15:04.064Z,2664
2017-01-17T11:16:14.039Z,2692
2017-01-17T11:17:24.791Z,2620
2017-01-17T11:18:35.563Z,2508
2017-01-17T11:19:45.943Z,2380
2017-01-17T11:20:56.711Z,2316
2017-01-17T11:22:07.071Z,2300
2017-01-17T11:23:17.445Z,2244
2017-01-17T11:24:27.802Z,2200
2017-01-17T11:25:38.598Z,2124
2017-01-17T11:26:49.382Z,2028
2017-01-17T11:27:59.748Z,1948
2017-01-17T11:29:10.104Z,1940
2017-01-17T11:30:20.496Z,1888
2017-01-17T11:31:30.454Z,1808
2017-01-17T11:32:40.793Z,1724
2017-01-17T11:33:51.544Z,1752
2017-01-17T11:35:01.923Z,1820
2017-01-17T11:36:12.665Z,1756
2017-01-17T11:37:23.007Z,1660
2017-01-17T11:38:33.753Z,1648
2017-01-17T11:39:44.095Z,1592
2017-01-17T11:40:53.682Z,1596
2017-01-17T11:42:04.439Z,1556
2017-01-17T11:43:15.185Z,1616
2017-01-17T11:44:25.959Z,1636
2017-01-17T11:45:35.945Z,1680
2017-01-17T11:46:46.681Z,1748
2017-01-17T11:47:57.069Z,1764
2017-01-17T11:49:07.855Z,1720
2017-01-17T11:50:18.274Z,1700
2017-01-17T11:51:28.247Z,1732
2017-01-17T11:52:38.623Z,1732
2017-01-17T11:53:49.046Z,1720
2017-01-17T11:54:59.831Z,1692
2017-01-17T11:56:10.220Z,1668
2017-01-17T11:57:21.019Z,1756
2017-01-17T11:58:31.799Z,1764
2017-01-17T11:59:42.153Z,1704
2017-01-17T12:00:52.121Z,1588
2017-01-17T12:02:02.094Z,1692
2017-01-17T12:03:12.445Z,1720
2017-01-17T12:04:22.784Z,1700
2017-01-17T12:05:33.148Z,1612
2017-01-17T12:06:43.526Z,1612
2017-01-17T12:07:53.549Z,1620
2017-01-17T12:09:04.315Z,1632
2017-01-17T12:10:15.070Z,1540
2017-01-17T12:11:25.467Z,1564
2017-01-17T12:12:35.429Z,1604
2017-01-17T12:13:45.806Z,1668
2017-01-17T12:14:56.548Z,1628
2017-01-17T12:16:07.320Z,1620
2017-01-17T12:17:18.107Z,1504
2017-01-17T12:18:28.501Z,1652
2017-01-17T12:19:38.875Z,1528
2017-01-17T12:20:48.855Z,1492
2017-01-17T12:21:59.623Z,1496
2017-01-17T12:23:09.590Z,1536
2017-01-17T12:24:19.941Z,1440
2017-01-17T12:25:30.698Z,1448
2017-01-17T12:26:41.439Z,1500
2017-01-17T12:27:51.814Z,1516
2017-01-17T12:29:01.771Z,1608
2017-01-17T12:30:11.732Z,1652
2017-01-17T12:31:22.482Z,1756
2017-01-17T12:32:32.827Z,1768
2017-01-17T12:33:42.834Z,1640
2017-01-17T12:34:53.604Z,1800
2017-01-17T12:36:04.360Z,1640
2017-01-17T12:37:14.707Z,1616
2017-01-17T12:38:25.484Z,1716
2017-01-17T12:39:35.836Z,1628
2017-01-17T12:40:46.200Z,1588
2017-01-17T12:41:56.968Z,1608
2017-01-17T12:43:07.328Z,1612
2017-01-17T12:44:17.303Z,1568
2017-01-17T12:45:27.658Z,1500
2017-01-17T12:46:38.415Z,1524
2017-01-17T12:47:48.800Z,1504
2017-01-17T12:48:58.760Z,1568
2017-01-17T12:50:09.122Z,1488
2017-01-17T12:51:19.873Z,1480
2017-01-17T12:52:30.249Z,1524
2017-01-17T12:53:41.011Z,1532
2017-01-17T12:54:51.767Z,1532
2017-01-17T12:56:02.128Z,1508
2017-01-17T12:57:12.890Z,1520
2017-01-17T12:58:23.643Z,1572
2017-01-17T12:59:34.452Z,1560
2017-01-17T13:00:44.459Z,1532
2017-01-17T13:01:54.826Z,1496
2017-01-17T13:03:05.633Z,1440
2017-01-17T13:04:16.385Z,1480
2017-01-17T13:05:27.152Z,1488
2017-01-17T13:06:37.129Z,1544
2017-01-17T13:07:47.906Z,1528
2017-01-17T13:08:58.249Z,1508
2017-01-17T13:10:09.028Z,1544
2017-01-17T13:11:19.408Z,1524
2017-01-17T13:12:29.784Z,1468
2017-01-17T13:13:40.180Z,1488
2017-01-17T13:14:50.536Z,1508
2017-01-17T13:16:00.896Z,1460
2017-01-17T13:17:10.913Z,1428
2017-01-17T13:18:21.675Z,1360
2017-01-17T13:19:32.494Z,1316
2017-01-17T13:20:42.047Z,1184
2017-01-17T13:21:52.396Z,1068
2017-01-17T13:23:02.759Z,1032
2017-01-17T13:24:13.361Z,1048
2017-01-17T13:25:24.163Z,1104
2017-01-17T13:26:34.128Z,1136
2017-01-17T13:27:44.507Z,1112
2017-01-17T13:28:55.266Z,1080
2017-01-17T13:30:06.088Z,1048
2017-01-17T13:31:16.862Z,1052
2017-01-17T13:32:26.817Z,1076
2017-01-17T13:33:37.590Z,1104
2017-01-17T13:34:48.336Z,1100
2017-01-17T13:35:59.079Z,1096
2017-01-17T13:37:09.485Z,1104
2017-01-17T13:38:19.832Z,1072
2017-01-17T13:39:30.271Z,1072
2017-01-17T13:40:40.613Z,1036
2017-01-17T13:41:50.984Z,1000
2017-01-17T13:43:01.337Z,948
2017-01-17T13:44:10.945Z,944
2017-01-17T13:45:21.314Z,952
2017-01-17T13:46:32.061Z,1000
2017-01-17T13:47:42.797Z,984
2017-01-17T13:48:53.555Z,932
2017-01-17T13:50:03.936Z,920
2017-01-17T13:51:14.692Z,892
2017-01-17T13:52:25.467Z,868
2017-01-17T13:53:36.071Z,840
2017-01-17T13:54:46.426Z,836
2017-01-17T13:55:57.185Z,836
2017-01-17T13:57:07.581Z,872
2017-01-17T13:58:18.394Z,904
2017-01-17T13:59:28.349Z,952
2017-01-17T14:00:39.121Z,1008
2017-01-17T14:01:48.707Z,1028
2017-01-17T14:02:59.086Z,1040
2017-01-17T14:04:09.819Z,1024
2017-01-17T14:05:20.188Z,1024
2017-01-17T14:06:30.554Z,1056
2017-01-17T14:07:41.329Z,1036
2017-01-17T14:08:52.099Z,972
2017-01-17T14:10:02.459Z,932
2017-01-17T14:11:13.272Z,900
2017-01-17T14:12:24.039Z,796
2017-01-17T14:13:34.462Z,676
2017-01-17T14:14:44.832Z,544
2017-01-17T14:15:55.190Z,500
2017-01-17T14:17:05.945Z,488
2017-01-17T14:18:16.722Z,456
2017-01-17T14:19:27.067Z,488
2017-01-17T14:20:37.458Z,540
2017-01-17T14:21:48.215Z,560
2017-01-17T14:22:58.992Z,612
2017-01-17T14:24:09.386Z,648
2017-01-17T14:25:20.179Z,632
2017-01-17T14:26:30.537Z,588
2017-01-17T14:27:40.751Z,548
2017-01-17T14:28:51.770Z,508
2017-01-17T14:30:02.117Z,484
2017-01-17T14:31:12.579Z,452
2017-01-17T14:32:22.976Z,432
2017-01-17T14:33:32.937Z,444
2017-01-17T14:34:43.293Z,452
2017-01-17T14:35:53.676Z,464
2017-01-17T14:37:04.886Z,496
2017-01-17T14:38:15.262Z,532
2017-01-17T14:39:26.015Z,532
2017-01-17T14:40:36.775Z,540
2017-01-17T14:41:47.546Z,548
2017-01-17T14:42:57.892Z,528
2017-01-17T14:44:07.466Z,496
2017-01-17T14:45:17.863Z,484
2017-01-17T14:46:28.621Z,480
2017-01-17T14:47:38.997Z,488
2017-01-17T14:48:49.406Z,500
2017-01-17T14:52:32.574Z,488
2017-01-17T14:56:15.027Z,452
2017-01-17T14:57:25.447Z,432
2017-01-17T14:58:36.202Z,392
2017-01-17T14:59:46.958Z,340
2017-01-17T15:00:57.917Z,312
2017-01-17T15:02:10.036Z,300
2017-01-17T15:03:23.238Z,288
2017-01-17T15:04:34.287Z,264
2017-01-17T15:05:44.968Z,228
2017-01-17T15:06:54.920Z,220
2017-01-17T15:08:04.897Z,224
2017-01-17T15:09:15.674Z,224
2017-01-17T15:10:26.445Z,232
2017-01-17T15:11:36.815Z,248
2017-01-17T15:12:47.174Z,244
2017-01-17T15:13:57.151Z,232
2017-01-17T15:15:07.123Z,224
2017-01-17T15:16:17.557Z,212
2017-01-17T15:17:27.945Z,200
2017-01-17T15:18:37.944Z,192
2017-01-17T15:19:48.708Z,176
2017-01-17T15:20:59.070Z,164
2017-01-17T15:22:09.468Z,156
2017-01-17T15:23:19.875Z,140
2017-01-17T15:24:30.230Z,132
2017-01-17T15:25:40.224Z,120
2017-01-17T15:26:50.984Z,112
2017-01-17T15:28:01.334Z,100
2017-01-17T15:29:11.696Z,92
2017-01-17T15:30:22.046Z,80
2017-01-17T15:31:32.798Z,76
2017-01-17T15:32:43.563Z,64
2017-01-17T15:33:54.118Z,60
2017-01-17T15:35:04.063Z,56
2017-01-17T15:36:14.473Z,44
2017-01-17T15:37:25.240Z,40
2017-01-17T15:38:36.014Z,36
2017-01-17T15:39:46.778Z,32
2017-01-17T15:40:57.177Z,28
2017-01-17T15:42:07.142Z,24
2017-01-17T15:43:17.898Z,20
2017-01-17T15:44:28.290Z,16
2017-01-17T15:45:39.045Z,16
2017-01-17T15:46:49.794Z,12
2017-01-17T15:48:00.566Z,8
2017-01-17T15:49:11.249Z,8
2017-01-17T15:50:21.223Z,8
2017-01-17T15:51:31.975Z,4
2017-01-17T15:52:42.363Z,8
2017-01-17T15:53:52.733Z,4
2017-01-17T15:55:03.516Z,0
2017-01-17T15:56:13.896Z,4
2017-01-17T15:57:24.641Z,4
2017-01-17T15:58:34.212Z,0
2017-01-17T15:59:44.573Z,0
2017-01-17T16:00:54.981Z,4
2017-01-17T16:02:05.043Z,4
2017-01-17T16:03:15.452Z,0
2017-01-17T16:04:25.827Z,0
2017-01-17T16:05:36.198Z,0
2017-01-17T16:06:46.978Z,0
2017-01-17T16:07:57.348Z,0
2017-01-17T16:09:08.114Z,0
2017-01-17T16:10:18.116Z,0
2017-01-17T16:11:28.508Z,0
2017-01-17T16:12:39.270Z,0
2017-01-17T16:13:50.042Z,0
2017-01-17T16:15:00.791Z,0
2017-01-17T16:16:11.542Z,0
2017-01-17T16:17:21.906Z,0
2017-01-17T16:18:32.661Z,0
2017-01-17T16:19:43.442Z,0
2017-01-17T16:20:53.790Z,0
2017-01-17T16:22:04.157Z,0
2017-01-17T16:23:14.107Z,0
2017-01-17T16:24:24.850Z,0
2017-01-17T16:25:35.211Z,0
2017-01-17T16:26:45.578Z,0
2017-01-17T16:27:56.334Z,0
2017-01-17T16:29:07.077Z,0
2017-01-17T16:30:17.475Z,0
2017-01-17T16:31:28.232Z,0
2017-01-17T16:32:38.989Z,0
2017-01-17T16:33:49.727Z,0
2017-01-17T16:35:00.487Z,0
2017-01-17T16:36:10.856Z,0
2017-01-17T16:37:20.427Z,0
2017-01-17T16:38:31.178Z,0
2017-01-17T16:39:41.556Z,0
2017-01-17T16:40:52.326Z,0
2017-01-17T16:42:02.280Z,0
2017-01-17T16:43:12.650Z,0
2017-01-17T16:44:22.999Z,0
2017-01-17T16:45:33.746Z,0
2017-01-17T16:46:44.092Z,0
2017-01-17T16:47:54.831Z,0
2017-01-17T16:49:05.176Z,0
2017-01-17T16:50:15.526Z,0
2017-01-17T16:51:26.290Z,0
2017-01-17T16:52:37.046Z,0
2017-01-17T16:53:47.428Z,0
2017-01-17T16:54:58.177Z,0
2017-01-17T16:56:08.551Z,0
2017-01-17T16:57:18.899Z,0
2017-01-17T16:58:29.311Z,0
2017-01-17T16:59:40.089Z,0
2017-01-17T17:00:50.858Z,0
2017-01-17T17:02:01.207Z,0
2017-01-17T17:03:11.971Z,0
2017-01-17T17:04:22.740Z,0